Time;durP1;ratioP1;P1;durP2;ratioP2;P2;SDS_P1;SDS_P2;PMS_P1;PMS_P2;Temp;Humidity;BMP_temperature;BMP_pressure;BME280_temperature;BME280_humidity;BME280_pressure;Samples;Min_cycle;Max_cycle;Signal;HPM_P1;HPM_P2
2022/07/10 00:00:29;;;;;;;0.20;0.20;;;;;;;15.31;62.48;100388.81;5126639;28;20054;-69
2022/07/10 00:02:56;;;;;;;0.30;0.30;;;;;;;15.27;61.84;100390.63;5126673;28;20425;-68
2022/07/10 00:05:23;;;;;;;1.02;0.93;;;;;;;15.25;61.70;100379.38;5126481;28;20076;-68
2022/07/10 00:07:49;;;;;;;0.20;0.20;;;;;;;15.27;61.71;100387.19;5126397;28;20075;-68
2022/07/10 00:10:15;;;;;;;0.28;0.28;;;;;;;15.25;61.20;100387.22;5126225;28;20023;-68
2022/07/10 00:12:40;;;;;;;0.20;0.20;;;;;;;15.21;60.97;100382.97;5126393;28;20024;-68
2022/07/10 00:15:06;;;;;;;0.20;0.20;;;;;;;15.22;60.89;100387.31;5126339;28;20076;-68
2022/07/10 00:17:32;;;;;;;0.20;0.20;;;;;;;15.21;60.91;100388.19;5126333;28;20068;-68
2022/07/10 00:19:58;;;;;;;0.30;0.30;;;;;;;15.17;60.41;100390.06;5107914;28;20030;-68
2022/07/10 00:22:23;;;;;;;0.45;0.45;;;;;;;15.16;60.42;100384.88;5107931;28;20019;-68
2022/07/10 00:24:50;;;;;;;0.20;0.20;;;;;;;15.10;60.41;100381.53;5125791;28;20023;-69
2022/07/10 00:27:18;;;;;;;0.20;0.20;;;;;;;15.05;60.01;100378.19;5107575;28;20119;-68
2022/07/10 00:29:44;;;;;;;0.20;0.20;;;;;;;14.99;59.58;100383.56;5126181;28;20020;-68
2022/07/10 00:32:09;;;;;;;0.20;0.20;;;;;;;14.81;59.44;100354.41;5126265;28;20023;-68
2022/07/10 00:34:35;;;;;;;0.20;0.20;;;;;;;14.98;59.55;100379.25;5126036;28;20382;-71
2022/07/10 00:37:01;;;;;;;0.30;0.30;;;;;;;14.97;59.53;100377.53;5126107;28;20031;-71
2022/07/10 00:39:26;;;;;;;0.25;0.25;;;;;;;14.85;59.33;100360.44;5125763;28;20023;-71
2022/07/10 00:41:52;;;;;;;0.20;0.20;;;;;;;14.92;59.17;100376.81;5125967;28;20459;-71
2022/07/10 00:44:17;;;;;;;0.20;0.20;;;;;;;14.85;59.05;100379.59;5125623;28;20031;-71
2022/07/10 00:46:43;;;;;;;0.30;0.30;;;;;;;14.85;59.03;100376.09;5125711;28;20020;-73
2022/07/10 00:49:08;;;;;;;0.20;0.20;;;;;;;14.81;59.06;100385.78;5125690;28;20115;-71
2022/07/10 00:51:33;;;;;;;0.20;0.20;;;;;;;14.76;59.15;100382.38;5125493;28;20015;-71
2022/07/10 00:54:00;;;;;;;0.20;0.20;;;;;;;14.63;59.18;100377.50;5125339;28;20054;-70
2022/07/10 00:56:27;;;;;;;0.30;0.30;;;;;;;14.61;59.21;100384.53;5125876;28;20111;-71
2022/07/10 00:58:53;;;;;;;0.30;0.30;;;;;;;14.55;59.04;100389.91;5125597;28;20058;-70
2022/07/10 01:01:19;;;;;;;0.30;0.30;;;;;;;14.53;59.03;100388.22;5125668;28;20027;-70
2022/07/10 01:03:46;;;;;;;0.20;0.20;;;;;;;14.48;59.21;100389.22;5125286;28;20098;-71
2022/07/10 01:06:15;;;;;;;0.30;0.30;;;;;;;14.46;59.29;100393.59;5125439;28;20022;-71
2022/07/10 01:08:42;;;;;;;0.30;0.30;;;;;;;14.46;59.26;100393.59;5125059;28;20028;-72
2022/07/10 01:11:08;;;;;;;0.25;0.25;;;;;;;14.46;59.18;100388.38;5125523;28;20463;-71
2022/07/10 01:13:34;;;;;;;0.22;0.22;;;;;;;14.51;59.36;100388.25;5125297;28;20086;-71
2022/07/10 01:15:59;;;;;;;0.20;0.20;;;;;;;14.54;59.40;100388.19;5125238;28;20027;-71
2022/07/10 01:18:25;;;;;;;0.30;0.30;;;;;;;14.59;59.38;100381.09;5125023;28;20019;-71
2022/07/10 01:20:53;;;;;;;0.22;0.22;;;;;;;14.63;59.33;100385.34;5125160;28;20031;-71
2022/07/10 01:23:18;;;;;;;0.20;0.20;;;;;;;14.66;59.02;100381.81;5124915;28;20023;-71
2022/07/10 01:25:43;;;;;;;0.20;0.20;;;;;;;14.69;59.21;100384.34;5124640;28;20070;-71
2022/07/10 01:28:09;;;;;;;0.30;0.30;;;;;;;14.72;59.05;100391.22;5125040;28;20054;-71
2022/07/10 01:30:34;;;;;;;0.22;0.22;;;;;;;14.74;59.22;100394.66;5124940;28;20356;-71
2022/07/10 01:33:00;;;;;;;0.20;0.20;;;;;;;14.73;59.33;100390.31;5125013;28;20057;-71
2022/07/10 01:35:25;;;;;;;0.20;0.20;;;;;;;14.75;58.94;100391.13;5124948;28;20019;-71
2022/07/10 01:37:50;;;;;;;0.28;0.28;;;;;;;14.79;58.99;100398.03;5106474;28;20086;-71
2022/07/10 01:40:16;;;;;;;0.25;0.25;;;;;;;14.82;58.99;100397.97;5124552;28;20028;-71
2022/07/10 01:42:41;;;;;;;0.22;0.22;;;;;;;14.83;58.93;100404.91;5124502;28;20028;-70
2022/07/10 01:45:11;;;;;;;0.20;0.20;;;;;;;14.84;58.89;100403.16;5124567;28;20110;-71
2022/07/10 01:47:36;;;;;;;0.20;0.20;;;;;;;14.83;58.92;100397.06;5124593;28;20097;-71
2022/07/10 01:50:02;;;;;;;0.20;0.20;;;;;;;14.86;59.00;100409.19;5124772;28;20031;-71
2022/07/10 01:52:28;;;;;;;0.20;0.20;;;;;;;14.86;58.86;100410.03;5106016;28;20074;-73
2022/07/10 01:54:53;;;;;;;0.20;0.20;;;;;;;14.89;59.01;100405.66;5124207;28;20020;-70
2022/07/10 01:57:18;;;;;;;0.30;0.30;;;;;;;14.91;59.02;100409.91;5124299;28;20027;-71
2022/07/10 01:59:44;;;;;;;0.20;0.20;;;;;;;14.93;58.78;100408.13;5123803;28;20587;-71
2022/07/10 02:02:10;;;;;;;0.52;0.52;;;;;;;14.91;58.85;100406.44;5124295;28;20371;-71
2022/07/10 02:04:41;;;;;;;0.20;0.20;;;;;;;14.92;59.01;100414.25;5124311;28;20039;-71
2022/07/10 02:07:11;;;;;;;0.30;0.30;;;;;;;14.92;59.04;100410.78;5124323;28;20500;-71
2022/07/10 02:09:38;;;;;;;0.20;0.20;;;;;;;14.91;58.91;100411.66;5124136;28;20027;-71
2022/07/10 02:12:05;;;;;;;0.20;0.20;;;;;;;14.93;58.93;100420.34;5124329;28;20391;-71
2022/07/10 02:14:30;;;;;;;0.20;0.20;;;;;;;14.87;58.86;100396.06;5124017;28;20083;-71
2022/07/10 02:16:56;;;;;;;0.28;0.28;;;;;;;14.95;58.93;100403.69;5124257;28;20051;-71
2022/07/10 02:19:21;;;;;;;0.20;0.20;;;;;;;15.01;58.66;100410.53;5124076;28;20020;-70
2022/07/10 02:21:47;;;;;;;0.20;0.20;;;;;;;14.98;58.91;100416.69;5105585;28;20506;-70
2022/07/10 02:24:12;;;;;;;0.30;0.30;;;;;;;15.00;58.75;100419.25;5123565;28;20016;-70
2022/07/10 02:26:38;;;;;;;0.28;0.28;;;;;;;15.02;58.89;100414.84;5123797;28;20086;-70
2022/07/10 02:29:03;;;;;;;0.20;0.20;;;;;;;15.05;58.64;100414.78;5124015;28;20083;-71
2022/07/10 02:31:29;;;;;;;0.20;0.20;;;;;;;15.07;58.83;100423.44;5123906;28;20027;-71
2022/07/10 02:33:55;;;;;;;0.20;0.20;;;;;;;14.88;58.54;100386.47;5123848;28;20098;-71
2022/07/10 02:36:20;;;;;;;0.20;0.20;;;;;;;15.07;58.68;100414.72;5105661;28;20079;-71
2022/07/10 02:38:45;;;;;;;0.30;0.30;;;;;;;15.08;58.52;100414.69;5123479;28;20019;-71
2022/07/10 02:41:11;;;;;;;0.30;0.30;;;;;;;15.02;58.57;100407.00;5123797;28;20083;-71
2022/07/10 02:43:36;;;;;;;0.30;0.30;;;;;;;15.11;58.37;100427.69;5123611;28;20401;-71
2022/07/10 02:46:02;;;;;;;0.30;0.30;;;;;;;15.08;58.36;100421.69;5123646;28;20110;-71
2022/07/10 02:48:28;;;;;;;0.30;0.30;;;;;;;15.06;57.98;100429.59;5123526;28;20467;-71
2022/07/10 02:50:53;;;;;;;0.20;0.20;;;;;;;15.10;58.05;100431.22;5123603;28;20054;-71
2022/07/10 02:53:18;;;;;;;0.20;0.20;;;;;;;15.10;58.14;100425.97;5123623;28;20019;-71
2022/07/10 02:55:44;;;;;;;0.20;0.20;;;;;;;15.09;58.09;100436.47;5122954;28;20368;-71
2022/07/10 02:58:09;;;;;;;0.25;0.25;;;;;;;15.06;57.84;100434.81;5123661;28;20024;-71
2022/07/10 03:00:35;;;;;;;0.30;0.30;;;;;;;14.99;57.38;100435.84;5123815;28;20114;-71
2022/07/10 03:03:01;;;;;;;0.30;0.30;;;;;;;14.97;57.02;100438.50;5123481;28;20050;-71
2022/07/10 03:05:26;;;;;;;0.20;0.20;;;;;;;14.95;56.98;100437.69;5123556;28;20015;-70
2022/07/10 03:07:52;;;;;;;0.30;0.30;;;;;;;14.94;56.67;100440.34;5123487;28;20104;-71
2022/07/10 03:10:17;;;;;;;0.30;0.30;;;;;;;14.91;56.18;100433.44;5123359;28;20035;-71
2022/07/10 03:12:43;;;;;;;0.20;0.20;;;;;;;14.71;56.05;100402.59;5127392;28;20047;-70
2022/07/10 03:15:09;;;;;;;0.30;0.30;;;;;;;14.69;55.91;100417.44;5109117;28;20057;-70
2022/07/10 03:17:34;;;;;;;0.30;0.30;;;;;;;14.85;55.90;100431.00;5127553;28;20104;-70
2022/07/10 03:19:59;;;;;;;2.17;2.08;;;;;;;14.86;55.80;100427.47;5127414;28;20027;-71
2022/07/10 03:22:25;;;;;;;0.20;0.20;;;;;;;14.90;55.79;100429.13;5109013;28;20375;-70
2022/07/10 03:24:50;;;;;;;0.20;0.20;;;;;;;14.93;55.59;100436.88;5127003;28;20046;-71
2022/07/10 03:27:16;;;;;;;0.20;0.20;;;;;;;14.92;55.93;100439.53;5127273;28;20119;-71
2022/07/10 03:29:41;;;;;;;0.20;0.20;;;;;;;14.89;55.68;100432.63;5127272;28;20391;-70
2022/07/10 03:32:07;;;;;;;0.20;0.20;;;;;;;14.74;55.37;100418.19;5127383;28;20106;-70
2022/07/10 03:34:33;;;;;;;0.30;0.30;;;;;;;14.87;55.35;100440.50;5127185;28;20035;-70
2022/07/10 03:37:03;;;;;;;0.30;0.30;;;;;;;14.65;55.38;100410.59;5108771;28;20035;-71
2022/07/10 03:39:28;;;;;;;0.20;0.20;;;;;;;14.85;55.18;100447.53;5126843;28;20023;-71
2022/07/10 03:41:53;;;;;;;0.20;0.20;;;;;;;14.85;55.19;100451.91;5127054;28;20452;-72
2022/07/10 03:44:19;;;;;;;0.20;0.20;;;;;;;14.65;54.99;100426.25;5126686;28;20028;-70
2022/07/10 03:46:44;;;;;;;0.30;0.30;;;;;;;14.79;54.84;100450.28;5126949;28;20051;-70
2022/07/10 03:49:09;;;;;;;0.30;0.30;;;;;;;14.80;54.95;100459.88;5127188;28;20028;-70
2022/07/10 03:51:35;;;;;;;0.20;0.20;;;;;;;14.78;55.03;100451.16;5127024;28;20063;-71
2022/07/10 03:54:00;;;;;;;0.30;0.30;;;;;;;14.76;55.30;100460.78;5126691;28;20024;-71
2022/07/10 03:59:10;;;;;;;0.20;0.20;;;;;;;14.72;55.22;100467.00;5126932;28;20033;-71
2022/07/10 04:01:35;;;;;;;0.20;0.20;;;;;;;14.66;55.20;100459.31;5126796;28;20059;-71
2022/07/10 04:04:00;;;;;;;0.20;0.20;;;;;;;14.69;55.36;100473.19;5126505;28;20045;-71
2022/07/10 04:06:26;;;;;;;0.20;0.20;;;;;;;14.65;55.34;100468.06;5126727;28;20062;-71
2022/07/10 04:08:51;;;;;;;0.30;0.30;;;;;;;14.52;55.63;100460.50;5126380;28;20026;-70
2022/07/10 04:11:17;;;;;;;0.22;0.22;;;;;;;14.61;55.58;100482.94;5126477;28;20024;-71
2022/07/10 04:13:42;;;;;;;0.20;0.20;;;;;;;14.58;55.84;100478.66;5126314;28;20043;-71
2022/07/10 04:16:12;;;;;;;0.30;0.30;;;;;;;14.61;55.77;100481.19;5126346;28;20020;-71
2022/07/10 04:18:38;;;;;;;0.20;0.20;;;;;;;14.60;55.99;100483.84;5126538;28;20233;-72
2022/07/10 04:21:03;;;;;;;0.20;0.20;;;;;;;14.68;55.83;100476.66;5126101;28;20045;-71
2022/07/10 04:23:28;;;;;;;0.20;0.20;;;;;;;14.82;56.10;100470.28;5126167;28;20024;-71
2022/07/10 04:25:54;;;;;;;0.30;0.30;;;;;;;14.82;56.24;100480.72;5125698;28;20042;-70
2022/07/10 04:28:19;;;;;;;0.20;0.20;;;;;;;14.70;56.20;100461.81;5126292;28;20019;-70
2022/07/10 04:30:44;;;;;;;0.20;0.20;;;;;;;14.77;56.58;100482.56;5126077;28;20049;-71
2022/07/10 04:33:10;;;;;;;0.30;0.30;;;;;;;14.78;56.57;100482.53;5125831;28;20300;-71
2022/07/10 04:35:35;;;;;;;0.30;0.30;;;;;;;14.77;56.50;100483.44;5125791;28;20051;-71
2022/07/10 04:38:01;;;;;;;0.30;0.30;;;;;;;14.77;56.54;100493.88;5125503;28;20020;-71
2022/07/10 04:40:26;;;;;;;0.22;0.22;;;;;;;14.79;56.56;100492.09;5125450;28;20088;-71
2022/07/10 04:42:51;;;;;;;0.25;0.25;;;;;;;14.82;56.68;100496.41;5125781;28;20023;-70
2022/07/10 04:45:16;;;;;;;0.20;0.20;;;;;;;14.81;56.56;100490.31;5125568;28;20030;-71
2022/07/10 04:47:42;;;;;;;0.30;0.30;;;;;;;14.85;56.54;100496.34;5125733;28;20023;-71
2022/07/10 04:50:08;;;;;;;0.20;0.20;;;;;;;14.86;56.64;100504.13;5125734;28;20034;-71
2022/07/10 04:52:33;;;;;;;0.20;0.20;;;;;;;14.92;56.26;100510.13;5125543;28;20031;-71
2022/07/10 04:54:59;;;;;;;0.30;0.30;;;;;;;14.97;56.39;100510.84;5125302;28;20012;-71
2022/07/10 04:57:24;;;;;;;0.30;0.30;;;;;;;15.05;56.65;100513.28;5125760;28;20022;-71
2022/07/10 04:59:49;;;;;;;0.20;0.20;;;;;;;15.16;56.40;100519.06;5125517;28;20457;-71
2022/07/10 05:02:15;;;;;;;0.20;0.20;;;;;;;15.28;56.46;100517.91;5125289;28;20028;-71
2022/07/10 05:04:40;;;;;;;0.20;0.20;;;;;;;15.41;56.63;100509.72;5125008;28;20028;-71
2022/07/10 05:07:05;;;;;;;0.20;0.20;;;;;;;15.53;56.32;100522.47;5125366;28;20027;-71
2022/07/10 05:09:31;;;;;;;0.30;0.30;;;;;;;15.67;56.48;100516.00;5124966;28;20060;-71
2022/07/10 05:11:56;;;;;;;0.30;0.30;;;;;;;15.81;56.27;100510.38;5125183;28;20015;-71
2022/07/10 05:14:21;;;;;;;0.20;0.20;;;;;;;15.96;55.84;100523.03;5125222;28;20023;-71
2022/07/10 05:16:47;;;;;;;0.20;0.20;;;;;;;16.43;55.83;100520.81;5125417;28;20087;-71
2022/07/10 05:19:12;;;;;;;0.20;0.20;;;;;;;16.98;55.34;100514.69;5125135;28;20078;-71
2022/07/10 05:21:37;;;;;;;0.20;0.20;;;;;;;17.90;54.58;100510.63;5125280;28;20020;-72
2022/07/10 05:24:03;;;;;;;0.20;0.20;;;;;;;18.70;52.74;100509.31;5124594;28;20024;-72
2022/07/10 05:26:28;;;;;;;0.30;0.30;;;;;;;19.59;52.30;100506.50;5106715;28;20503;-72
2022/07/10 05:28:54;;;;;;;0.20;0.20;;;;;;;20.23;50.84;100500.97;5125006;28;20052;-72
2022/07/10 05:31:19;;;;;;;0.20;0.20;;;;;;;20.08;49.15;100523.66;5124832;28;20023;-72
2022/07/10 05:33:45;;;;;;;0.20;0.20;;;;;;;20.11;47.25;100502.44;5123889;28;20032;-71
2022/07/10 05:36:10;;;;;;;0.20;0.20;;;;;;;20.33;46.59;100515.44;5124925;28;20026;-71
2022/07/10 05:38:36;;;;;;;0.20;0.20;;;;;;;20.65;44.53;100520.09;5116644;28;20016;-71
2022/07/10 05:41:01;;;;;;;0.20;0.20;;;;;;;20.86;44.71;100483.00;5125030;28;20016;-70
2022/07/10 05:43:27;;;;;;;0.20;0.20;;;;;;;21.40;42.93;100505.81;5124579;28;20081;-71
2022/07/10 05:45:52;;;;;;;0.20;0.20;;;;;;;21.50;41.77;100508.81;5124485;28;20030;-71
2022/07/10 05:48:19;;;;;;;0.20;0.20;;;;;;;21.42;41.05;100490.75;5124653;28;20027;-71
2022/07/10 05:50:44;;;;;;;0.20;0.20;;;;;;;21.61;41.39;100518.81;5124587;28;20062;-71
2022/07/10 05:53:10;;;;;;;0.20;0.20;;;;;;;21.83;40.08;100483.31;5124240;28;20371;-71
2022/07/10 05:55:35;;;;;;;0.13;0.13;;;;;;;22.12;39.16;100507.28;5124368;28;20079;-70
2022/07/10 05:58:00;;;;;;;0.10;0.10;;;;;;;22.24;39.89;100513.69;5124678;28;20266;-71
2022/07/10 06:00:26;;;;;;;0.10;0.10;;;;;;;22.48;38.39;100522.03;5124237;28;20024;-71
2022/07/10 06:02:51;;;;;;;0.20;0.20;;;;;;;22.51;37.47;100519.19;5124368;28;20035;-70
2022/07/10 06:05:17;;;;;;;0.20;0.20;;;;;;;22.54;37.79;100503.16;5124148;28;20023;-71
2022/07/10 06:07:42;;;;;;;0.20;0.20;;;;;;;22.42;36.93;100517.09;5124146;28;20023;-71
2022/07/10 06:10:08;;;;;;;0.10;0.10;;;;;;;21.91;36.55;100520.75;5123970;28;20039;-70
2022/07/10 06:12:33;;;;;;;0.20;0.20;;;;;;;21.72;37.07;100531.44;5124166;28;20468;-71
2022/07/10 06:14:59;;;;;;;0.20;0.20;;;;;;;21.75;37.47;100518.06;5124229;28;20016;-71
2022/07/10 06:17:24;;;;;;;0.20;0.20;;;;;;;21.88;37.16;100520.94;5124361;28;20353;-71
2022/07/10 06:19:50;;;;;;;0.20;0.20;;;;;;;22.07;37.52;100522.56;5123996;28;20058;-71
2022/07/10 06:22:30;;;;;;;0.20;0.20;;;;;;;22.62;37.98;100537.13;5124095;28;20433;-71
2022/07/10 06:25:05;;;;;;;0.20;0.20;;;;;;;23.27;38.15;100526.34;5123642;28;20073;-70
2022/07/10 06:27:31;;;;;;;0.10;0.10;;;;;;;24.07;38.20;100526.81;5123971;28;20040;-70
2022/07/10 06:29:57;;;;;;;0.10;0.10;;;;;;;24.91;37.69;100533.84;5124221;28;20073;-71
2022/07/10 06:32:24;;;;;;;0.10;0.10;;;;;;;25.58;36.27;100530.16;5123831;28;20027;-72
2022/07/10 06:34:50;;;;;;;0.10;0.10;;;;;;;25.72;35.03;100531.88;5123694;28;20030;-71
2022/07/10 06:37:15;;;;;;;0.10;0.10;;;;;;;25.85;35.12;100531.00;5123824;28;20019;-72
2022/07/10 06:39:41;;;;;;;0.10;0.10;;;;;;;26.06;32.65;100525.09;5123488;28;20062;-70
2022/07/10 06:42:06;;;;;;;0.10;0.10;;;;;;;25.32;30.88;100510.75;5123743;28;20015;-71
2022/07/10 06:44:33;;;;;;;0.10;0.10;;;;;;;24.58;31.08;100514.75;5123431;28;20036;-71
2022/07/10 06:49:45;;;;;;;0.10;0.10;;;;;;;23.49;33.01;100511.81;5123749;28;20042;-70
2022/07/10 06:52:11;;;;;;;0.10;0.10;;;;;;;23.83;32.33;100524.78;5123498;28;20043;-71
2022/07/10 06:54:36;;;;;;;0.20;0.20;;;;;;;23.44;31.35;100535.94;5123128;28;20080;-70
2022/07/10 06:57:02;;;;;;;0.10;0.10;;;;;;;23.07;31.92;100515.16;5123345;28;20032;-71
2022/07/10 06:59:28;;;;;;;0.10;0.10;;;;;;;22.86;32.68;100527.88;5123321;28;20355;-71
2022/07/10 07:01:53;;;;;;;0.20;0.20;;;;;;;23.04;33.25;100525.91;5123243;28;20100;-71
2022/07/10 07:04:18;;;;;;;0.10;0.10;;;;;;;23.82;34.01;100517.78;5123136;28;20475;-70
2022/07/10 07:06:44;;;;;;;0.10;0.10;;;;;;;24.36;32.20;100532.09;5123490;28;20038;-74
2022/07/10 07:09:09;;;;;;;0.10;0.10;;;;;;;24.72;32.65;100527.94;5123062;28;20164;-69
2022/07/10 07:11:34;;;;;;;0.10;0.10;;;;;;;25.35;33.16;100527.28;5123583;28;20483;-70
2022/07/10 07:14:00;;;;;;;0.17;0.17;;;;;;;25.73;30.62;100530.94;5123532;28;20020;-69
2022/07/10 07:16:38;;;;;;;0.10;0.10;;;;;;;25.42;30.04;100533.03;5123865;28;20049;-75
2022/07/10 07:19:05;;;;;;;0.10;0.10;;;;;;;25.59;30.25;100528.38;5123782;28;20020;-72
2022/07/10 07:24:18;;;;;;;0.10;0.10;;;;;;;25.74;29.54;100540.59;5122855;28;20035;-69
2022/07/10 07:26:44;;;;;;;0.10;0.10;;;;;;;25.29;29.26;100533.03;5123239;28;20043;-70
2022/07/10 07:29:09;;;;;;;0.10;0.10;;;;;;;25.04;30.21;100544.50;5123211;28;20047;-70
2022/07/10 07:31:34;;;;;;;0.10;0.10;;;;;;;25.05;30.68;100532.94;5123166;28;20274;-70
2022/07/10 07:34:00;;;;;;;0.10;0.10;;;;;;;25.40;29.93;100550.88;5122878;28;20023;-70
2022/07/10 07:36:25;;;;;;;0.10;0.10;;;;;;;25.32;28.91;100548.78;5123273;28;20030;-69
2022/07/10 07:38:52;;;;;;;0.10;0.10;;;;;;;25.37;29.86;100548.44;5123213;28;20019;-70
2022/07/10 07:41:18;;;;;;;0.10;0.10;;;;;;;25.70;30.15;100549.72;5104967;28;20024;-70
2022/07/10 07:43:43;;;;;;;0.10;0.10;;;;;;;26.10;29.60;100548.69;5123324;28;20133;-70
2022/07/10 07:46:09;;;;;;;0.10;0.10;;;;;;;25.86;27.73;100546.00;5123192;28;20535;-70
2022/07/10 07:48:35;;;;;;;0.10;0.10;;;;;;;25.75;28.80;100554.75;5123231;28;20030;-70
2022/07/10 07:51:00;;;;;;;0.10;0.10;;;;;;;25.69;29.16;100553.34;5123243;28;20015;-70
2022/07/10 07:53:25;;;;;;;0.10;0.10;;;;;;;25.63;28.88;100556.44;5123190;28;20049;-70
2022/07/10 07:55:51;;;;;;;0.10;0.10;;;;;;;25.82;29.19;100541.84;5123054;28;20024;-70
2022/07/10 07:58:16;;;;;;;0.10;0.10;;;;;;;26.22;28.30;100546.09;5126241;28;20024;-70
2022/07/10 08:00:42;;;;;;;0.10;0.10;;;;;;;26.67;28.61;100552.66;5126627;28;20062;-70
2022/07/10 08:03:08;;;;;;;0.10;0.10;;;;;;;27.19;28.52;100550.53;5126700;28;20015;-70
2022/07/10 08:05:33;;;;;;;0.10;0.10;;;;;;;26.98;25.81;100515.72;5126469;28;20023;-71
2022/07/10 08:08:04;;;;;;;0.10;0.10;;;;;;;26.12;26.90;100535.28;5126650;28;20054;-70
2022/07/10 08:10:29;;;;;;;0.10;0.10;;;;;;;25.45;27.85;100553.22;5126397;28;20020;-70
2022/07/10 08:12:54;;;;;;;0.38;0.38;;;;;;;25.43;29.08;100563.13;5126375;28;20026;-70
2022/07/10 08:15:22;;;;;;;0.10;0.10;;;;;;;26.12;28.31;100556.56;5126263;28;20019;-70
2022/07/10 08:17:49;;;;;;;0.10;0.10;;;;;;;25.92;26.75;100553.53;5126364;28;20023;-71
2022/07/10 08:20:14;;;;;;;0.10;0.10;;;;;;;25.24;27.86;100557.28;5126564;28;20027;-71
2022/07/10 08:22:41;;;;;;;0.10;0.10;;;;;;;24.78;28.68;100553.22;5126272;28;20023;-70
2022/07/10 08:25:08;;;;;;;0.10;0.10;;;;;;;24.90;29.60;100561.38;5125969;28;20031;-71
2022/07/10 08:27:33;;;;;;;0.10;0.10;;;;;;;25.73;29.14;100567.28;5125913;28;20039;-70
2022/07/10 08:30:00;;;;;;;0.10;0.10;;;;;;;26.19;27.24;100555.19;5126367;28;20027;-72
2022/07/10 08:32:27;;;;;;;0.10;0.10;;;;;;;26.09;28.04;100552.31;5126137;28;20076;-72
2022/07/10 08:34:52;;;;;;;0.10;0.10;;;;;;;26.57;26.53;100560.47;5107608;28;20012;-74
2022/07/10 08:37:19;;;;;;;0.10;0.10;;;;;;;26.02;26.67;100563.53;5126191;28;20092;-70
2022/07/10 08:39:45;;;;;;;0.20;0.20;;;;;;;25.40;26.90;100566.84;5125810;28;20020;-69
2022/07/10 08:42:11;;;;;;;0.10;0.10;;;;;;;24.94;27.86;100565.50;5126077;28;20020;-70
2022/07/10 08:44:37;;;;;;;0.20;0.20;;;;;;;25.16;28.01;100562.25;5125823;28;20079;-71
2022/07/10 08:47:03;;;;;;;0.10;0.10;;;;;;;25.10;27.74;100565.31;5125641;28;20028;-66
2022/07/10 08:49:30;;;;;;;0.15;0.15;;;;;;;24.71;28.45;100559.91;5125926;28;20039;-65
2022/07/10 08:51:55;;;;;;;0.10;0.10;;;;;;;25.25;28.91;100559.00;5125876;28;20012;-68
2022/07/10 08:54:21;;;;;;;0.10;0.10;;;;;;;25.95;28.02;100555.13;5125339;28;20070;-65
2022/07/10 08:56:47;;;;;;;0.10;0.10;;;;;;;26.29;27.29;100539.41;5125553;28;20049;-69
2022/07/10 08:59:14;;;;;;;0.20;0.20;;;;;;;25.97;26.72;100553.22;5125518;28;20404;-69
2022/07/10 09:01:40;;;;;;;0.20;0.20;;;;;;;25.94;27.67;100564.06;5106905;28;20106;-69
2022/07/10 09:04:05;;;;;;;0.10;0.10;;;;;;;26.49;27.38;100569.03;5125188;28;20031;-68
2022/07/10 09:06:30;;;;;;;0.20;0.20;;;;;;;26.48;26.54;100564.69;5125442;28;20027;-65
2022/07/10 09:09:05;;;;;;;0.10;0.10;;;;;;;26.75;27.72;100557.41;5124060;28;20016;-69
2022/07/10 09:11:32;;;;;;;0.15;0.15;;;;;;;27.70;26.25;100566.25;5125582;28;20035;-68
2022/07/10 09:14:00;;;;;;;0.10;0.10;;;;;;;27.39;25.71;100548.16;5106994;28;20032;-67
2022/07/10 09:16:32;;;;;;;0.10;0.10;;;;;;;27.18;26.17;100566.66;5125358;28;20022;-68
2022/07/10 09:19:19;;;;;;;0.10;0.10;;;;;;;27.48;26.14;100573.22;5106995;28;20371;-71
2022/07/10 09:21:46;;;;;;;0.10;0.10;;;;;;;27.78;25.19;100558.47;5125048;28;20031;-70
2022/07/10 09:24:11;;;;;;;0.10;0.10;;;;;;;28.31;25.02;100567.66;5124750;28;20028;-71
2022/07/10 09:26:38;;;;;;;0.10;0.10;;;;;;;28.40;23.53;100562.53;5124762;28;20047;-70
2022/07/10 09:29:11;;;;;;;0.10;0.10;;;;;;;27.71;24.85;100566.13;5125015;28;20024;-72
2022/07/10 09:32:00;;;;;;;0.10;0.10;;;;;;;28.00;26.22;100566.59;5124980;28;20224;-75
2022/07/10 09:34:38;;;;;;;0.10;0.10;;;;;;;28.77;25.84;100562.13;5124905;28;20015;-78
2022/07/10 09:37:18;;;;;;;0.10;0.10;;;;;;;29.06;26.03;100561.53;5106318;28;20027;-78
2022/07/10 09:40:01;;;;;;;0.10;0.10;;;;;;;29.62;24.63;100566.66;5124830;28;20019;-78
2022/07/10 09:42:33;;;;;;;0.10;0.10;;;;;;;30.62;24.32;100552.53;5124686;28;20117;-77
2022/07/10 09:45:11;;;;;;;0.10;0.10;;;;;;;29.29;22.26;100556.06;5124648;28;20081;-76
2022/07/10 09:47:41;;;;;;;0.10;0.10;;;;;;;28.10;23.58;100564.88;5124632;28;20053;-76
2022/07/10 09:50:22;;;;;;;0.10;0.10;;;;;;;28.13;25.48;100569.13;5124783;28;20081;-75
2022/07/10 09:52:55;;;;;;;;;;;;;;;28.86;24.67;100565.88;5125086;28;20020;-70
2022/07/10 09:55:23;;;;;;;0.10;0.10;;;;;;;28.51;23.35;100573.19;5124421;28;19907;-73
2022/07/10 09:57:56;;;;;;;0.10;0.10;;;;;;;27.56;23.45;100583.28;5105891;28;20121;-69
2022/07/10 10:00:27;;;;;;;0.10;0.10;;;;;;;26.77;23.75;100574.97;5124509;28;20027;-73
2022/07/10 10:02:55;;;;;;;0.10;0.10;;;;;;;26.54;24.68;100571.34;5124438;28;20024;-74
2022/07/10 10:05:26;;;;;;;0.10;0.10;;;;;;;26.61;25.43;100565.44;5105976;28;20030;-71
2022/07/10 10:07:53;;;;;;;0.10;0.10;;;;;;;26.85;25.65;100553.94;5124594;28;20039;-73
2022/07/10 10:10:19;;;;;;;0.10;0.10;;;;;;;26.66;25.30;100564.28;5123976;28;20028;-69
2022/07/10 10:12:52;;;;;;;0.10;0.10;;;;;;;26.54;25.41;100574.00;5124422;28;20392;-68
2022/07/10 10:15:18;;;;;;;0.10;0.10;;;;;;;26.08;25.58;100571.06;5124093;28;20031;-71
2022/07/10 10:17:45;;;;;;;0.10;0.10;;;;;;;25.54;26.52;100567.69;5105865;28;20024;-71
2022/07/10 10:23:00;;;;;;;0.10;0.10;;;;;;;26.17;26.88;100554.44;5118621;28;20038;-72
2022/07/10 10:25:26;;;;;;;0.10;0.10;;;;;;;26.59;26.29;100563.88;5123734;28;20027;-71
2022/07/10 10:27:52;;;;;;;0.10;0.10;;;;;;;26.18;26.29;100571.25;5124140;28;20053;-71
2022/07/10 10:30:18;;;;;;;0.10;0.10;;;;;;;26.08;25.83;100579.91;5124189;28;20034;-71
2022/07/10 10:32:43;;;;;;;0.10;0.10;;;;;;;25.95;25.22;100582.59;5124117;28;20030;-71
2022/07/10 10:35:15;;;;;;;0.10;0.10;;;;;;;25.66;25.22;100574.84;5123909;28;20024;-71
2022/07/10 10:37:44;;;;;;;0.10;0.10;;;;;;;25.80;25.13;100575.69;5123946;28;20320;-72
2022/07/10 10:40:29;;;;;;;0.10;0.10;;;;;;;25.68;24.40;100574.75;5123988;28;20035;-72
2022/07/10 10:42:55;;;;;;;0.10;0.10;;;;;;;25.56;25.45;100573.78;5105409;28;20026;-77
2022/07/10 10:45:31;;;;;;;0.10;0.10;;;;;;;26.07;25.40;100572.03;5105177;28;20008;-70
2022/07/10 10:48:08;;;;;;;0.10;0.10;;;;;;;25.47;26.08;100568.13;5123999;28;20042;-72
2022/07/10 10:50:53;;;;;;;0.10;0.10;;;;;;;25.55;27.46;100577.38;5123521;28;20043;-73
2022/07/10 10:53:27;;;;;;;0.10;0.10;;;;;;;25.95;27.75;100571.09;5123708;28;20020;-72
2022/07/10 10:56:04;;;;;;;0.10;0.10;;;;;;;26.38;27.72;100564.50;5105874;28;20058;-72
2022/07/10 10:58:41;;;;;;;0.10;0.10;;;;;;;26.57;28.56;100566.66;5123829;28;20595;-72
2022/07/10 11:01:30;;;;;;;0.10;0.10;;;;;;;27.18;28.27;100572.84;5123993;28;20023;-71
2022/07/10 11:04:04;;;;;;;0.10;0.10;;;;;;;27.09;27.77;100562.88;5123704;28;20043;-72
2022/07/10 11:06:52;;;;;;;0.10;0.10;;;;;;;26.53;28.56;100569.66;5123567;28;20024;-72
2022/07/10 11:09:24;;;;;;;0.10;0.10;;;;;;;26.17;29.16;100569.53;5123452;28;20498;-72
2022/07/10 11:12:10;;;;;;;0.10;0.10;;;;;;;25.38;29.16;100571.44;5123854;28;20026;-73
2022/07/10 11:14:37;;;;;;;0.10;0.10;;;;;;;24.64;30.08;100570.06;5123862;28;20460;-73
2022/07/10 11:17:04;;;;;;;0.10;0.10;;;;;;;24.13;31.04;100572.38;5124001;28;20338;-72
2022/07/10 11:19:31;;;;;;;0.10;0.10;;;;;;;23.58;31.56;100574.84;5123905;28;20051;-72
2022/07/10 11:22:34;;;;;;;0.20;0.20;;;;;;;23.13;32.21;100575.69;5123901;28;20031;-73
2022/07/10 11:25:44;;;;;;;0.10;0.10;;;;;;;22.82;33.09;100579.25;5123338;28;20028;-72
2022/07/10 11:28:12;;;;;;;0.10;0.10;;;;;;;22.82;34.03;100574.84;5105631;28;20542;-73
2022/07/10 11:30:54;;;;;;;0.10;0.10;;;;;;;22.85;34.10;100579.09;5123745;28;20031;-73
2022/07/10 11:33:21;;;;;;;0.20;0.20;;;;;;;22.82;33.76;100587.19;5127046;28;20055;-72
2022/07/10 11:35:49;;;;;;;0.10;0.10;;;;;;;22.78;33.27;100586.50;5127594;28;20023;-72